createdAt,value
2018-11-06T00:00:02.577Z,0
2018-11-06T00:05:03.065Z,0
2018-11-06T00:10:02.799Z,0
2018-11-06T00:15:02.366Z,0
2018-11-06T00:20:02.908Z,0
2018-11-06T00:25:02.484Z,0
2018-11-06T00:30:03.106Z,0
2018-11-06T00:35:02.684Z,0
2018-11-06T00:40:03.268Z,0
2018-11-06T00:45:02.958Z,0
2018-11-06T00:50:02.570Z,0
2018-11-06T00:55:03.130Z,0
2018-11-06T01:00:02.810Z,0
2018-11-06T01:05:02.953Z,0
2018-11-06T01:10:02.627Z,0
2018-11-06T01:15:03.262Z,0
2018-11-06T01:20:03.204Z,0
2018-11-06T01:25:02.767Z,0
2018-11-06T01:30:02.377Z,0
2018-11-06T01:35:03.005Z,0
2018-11-06T01:40:02.751Z,0
2018-11-06T01:45:03.345Z,0
2018-11-06T01:50:02.907Z,0
2018-11-06T01:55:02.502Z,0
2018-11-06T02:00:03.025Z,0
2018-11-06T02:05:02.584Z,0
2018-11-06T02:10:03.176Z,0
2018-11-06T02:15:02.709Z,0
2018-11-06T02:20:03.248Z,0
2018-11-06T02:25:02.845Z,0
2018-11-06T02:30:02.419Z,0
2018-11-06T02:35:03.051Z,0
2018-11-06T02:40:02.752Z,0
2018-11-06T02:45:03.290Z,0
2018-11-06T02:50:02.860Z,0
2018-11-06T02:55:02.478Z,0
2018-11-06T03:00:03.079Z,0
2018-11-06T03:05:02.784Z,0
2018-11-06T03:10:02.523Z,0
2018-11-06T03:15:02.477Z,0
2018-11-06T03:20:03.145Z,0
2018-11-06T03:25:02.696Z,0
2018-11-06T03:30:03.275Z,0
2018-11-06T03:35:02.877Z,0
2018-11-06T03:40:02.497Z,0
2018-11-06T03:45:03.117Z,0
2018-11-06T03:50:02.707Z,0
2018-11-06T03:55:03.294Z,0
2018-11-06T04:00:02.966Z,0
2018-11-06T04:05:02.560Z,0
2018-11-06T04:10:03.066Z,0
2018-11-06T04:15:02.616Z,0
2018-11-06T04:20:03.139Z,0
2018-11-06T04:25:02.670Z,0
2018-11-06T04:30:03.216Z,0
2018-11-06T04:35:02.733Z,0
2018-11-06T04:40:03.291Z,0
2018-11-06T04:45:02.922Z,0
2018-11-06T04:50:02.582Z,0
2018-11-06T04:55:03.183Z,0
2018-11-06T05:00:02.709Z,0
2018-11-06T05:05:03.344Z,1
2018-11-06T05:10:02.917Z,0
2018-11-06T05:15:02.470Z,0
2018-11-06T05:20:03.069Z,0
2018-11-06T05:25:02.640Z,0
2018-11-06T05:30:03.272Z,0
2018-11-06T05:35:02.833Z,0
2018-11-06T05:40:02.466Z,1
2018-11-06T05:45:02.938Z,1
2018-11-06T05:50:02.534Z,1
2018-11-06T05:55:03.017Z,1
2018-11-06T06:00:02.581Z,3
2018-11-06T06:05:03.158Z,4
2018-11-06T06:10:02.727Z,7
2018-11-06T06:15:03.269Z,14
2018-11-06T06:20:02.815Z,31
2018-11-06T06:25:02.458Z,45
2018-11-06T06:30:03.109Z,108
2018-11-06T06:35:02.925Z,109
2018-11-06T06:40:03.333Z,76
2018-11-06T06:45:02.384Z,82
2018-11-06T06:50:02.913Z,256
2018-11-06T06:55:02.626Z,345
2018-11-06T07:00:03.051Z,436
2018-11-06T07:05:02.744Z,552
2018-11-06T07:10:02.367Z,669
2018-11-06T07:15:02.980Z,760
2018-11-06T07:20:02.574Z,894
2018-11-06T07:25:03.264Z,1000
2018-11-06T07:30:02.764Z,1000
2018-11-06T07:35:03.088Z,1000
2018-11-06T07:40:02.382Z,1000
2018-11-06T07:45:03.033Z,1000
2018-11-06T07:50:02.849Z,2000
2018-11-06T07:55:02.442Z,2000
2018-11-06T08:00:03.073Z,2000
2018-11-06T08:05:02.671Z,2000
2018-11-06T08:10:03.279Z,2000
2018-11-06T08:15:02.935Z,3000
2018-11-06T08:20:03.112Z,3000
2018-11-06T08:25:02.699Z,3000
2018-11-06T08:30:03.554Z,6000
2018-11-06T08:35:03.096Z,8000
2018-11-06T08:40:02.787Z,9000
2018-11-06T08:45:03.323Z,13000
2018-11-06T08:50:02.773Z,21000
2018-11-06T08:55:03.347Z,21000
2018-11-06T09:00:02.853Z,20000
2018-11-06T09:05:02.545Z,17000
2018-11-06T09:10:03.228Z,23000
2018-11-06T09:15:02.755Z,22000
2018-11-06T09:20:03.317Z,23000
2018-11-06T09:25:02.906Z,22000
2018-11-06T09:30:02.535Z,20000
2018-11-06T09:35:03.308Z,22000
2018-11-06T09:40:03.631Z,24000
2018-11-06T09:45:03.444Z,25000
2018-11-06T09:50:02.488Z,32000
2018-11-06T09:55:03.261Z,17000
2018-11-06T10:00:02.812Z,5000
2018-11-06T10:05:02.570Z,17000
2018-11-06T10:10:03.264Z,27000
2018-11-06T10:15:02.784Z,31000
2018-11-06T10:20:03.292Z,23000
2018-11-06T10:25:02.913Z,26000
2018-11-06T10:30:02.556Z,22000
2018-11-06T10:35:03.129Z,26000
2018-11-06T10:40:02.861Z,25000
2018-11-06T10:45:02.484Z,28000
2018-11-06T10:50:03.083Z,30000
2018-11-06T10:55:02.640Z,29000
2018-11-06T11:00:03.272Z,21000
2018-11-06T11:05:02.835Z,28000
2018-11-06T11:10:02.548Z,24000
2018-11-06T11:15:03.053Z,14000
2018-11-06T11:20:02.829Z,22000
2018-11-06T11:25:02.619Z,19000
2018-11-06T11:30:03.179Z,5000
2018-11-06T11:35:02.677Z,5000
2018-11-06T11:40:03.322Z,6000
2018-11-06T11:45:03.117Z,5000
2018-11-06T11:50:02.749Z,5000
2018-11-06T11:55:03.362Z,5000
2018-11-06T12:00:03.017Z,6000
2018-11-06T12:05:03.032Z,6000
2018-11-06T12:10:02.700Z,7000
2018-11-06T12:15:03.325Z,7000
2018-11-06T12:20:02.916Z,9000
2018-11-06T12:25:03.248Z,14000
2018-11-06T12:30:02.535Z,5000
2018-11-06T12:35:03.119Z,6000
2018-11-06T12:40:02.680Z,15000
2018-11-06T12:45:03.198Z,5000
2018-11-06T12:50:02.757Z,7000
2018-11-06T12:55:02.546Z,6000
2018-11-06T13:00:03.136Z,5000
2018-11-06T13:05:02.703Z,5000
2018-11-06T13:10:02.639Z,6000
2018-11-06T13:15:03.205Z,5000
2018-11-06T13:20:02.833Z,5000
2018-11-06T13:25:02.384Z,5000
2018-11-06T13:30:02.940Z,5000
2018-11-06T13:35:02.532Z,6000
2018-11-06T13:40:03.224Z,7000
2018-11-06T13:45:03.397Z,5000
2018-11-06T13:50:02.762Z,18000
2018-11-06T13:55:02.408Z,20000
2018-11-06T14:00:03.018Z,15000
2018-11-06T14:05:02.605Z,15000
2018-11-06T14:10:03.323Z,7000
2018-11-06T14:15:02.847Z,6000
2018-11-06T14:20:02.480Z,4000
2018-11-06T14:25:03.074Z,3000
2018-11-06T14:30:02.701Z,2000
2018-11-06T14:35:03.281Z,2000
2018-11-06T14:40:02.816Z,2000
2018-11-06T14:45:02.458Z,2000
2018-11-06T14:50:02.953Z,2000
2018-11-06T14:55:02.521Z,3000
2018-11-06T15:00:03.143Z,2000
2018-11-06T15:05:02.703Z,1000
2018-11-06T15:10:02.368Z,1000
2018-11-06T15:15:02.965Z,1000
2018-11-06T15:20:02.528Z,1000
2018-11-06T15:25:03.104Z,927
2018-11-06T15:30:02.686Z,878
2018-11-06T15:35:03.233Z,665
2018-11-06T15:40:02.826Z,535
2018-11-06T15:45:02.436Z,404
2018-11-06T15:50:03.048Z,158
2018-11-06T15:55:02.644Z,80
2018-11-06T16:00:03.167Z,65
2018-11-06T16:05:02.754Z,55
2018-11-06T16:10:02.402Z,45
2018-11-06T16:15:03.008Z,50
2018-11-06T16:20:02.588Z,13
2018-11-06T16:25:03.335Z,5
2018-11-06T16:30:02.922Z,2
2018-11-06T16:35:02.620Z,1
2018-11-06T16:40:03.244Z,0
2018-11-06T16:45:02.718Z,0
2018-11-06T16:50:03.329Z,0
2018-11-06T16:55:02.888Z,0
2018-11-06T17:00:02.778Z,0
2018-11-06T17:05:03.227Z,0
2018-11-06T17:10:03.123Z,0
2018-11-06T17:15:02.732Z,0
2018-11-06T17:20:03.353Z,0
2018-11-06T17:25:02.950Z,0
2018-11-06T17:30:02.634Z,0
2018-11-06T17:35:03.169Z,0
2018-11-06T17:40:02.824Z,0
2018-11-06T17:45:02.457Z,0
2018-11-06T17:50:03.123Z,0
2018-11-06T17:55:02.893Z,0
2018-11-06T18:00:02.968Z,0
2018-11-06T18:05:02.650Z,0
2018-11-06T18:10:03.283Z,0
2018-11-06T18:15:02.872Z,0
2018-11-06T18:20:02.486Z,0
2018-11-06T18:25:03.223Z,0
2018-11-06T18:30:03.051Z,0
2018-11-06T18:35:02.657Z,0
2018-11-06T18:40:03.361Z,0
2018-11-06T18:45:02.936Z,0
2018-11-06T18:50:02.476Z,0
2018-11-06T18:55:03.188Z,0
2018-11-06T19:00:02.836Z,0
2018-11-06T19:05:02.470Z,0
2018-11-06T19:10:03.060Z,0
2018-11-06T19:15:02.640Z,0
2018-11-06T19:20:03.292Z,0
2018-11-06T19:25:02.845Z,0
2018-11-06T19:30:02.427Z,0
2018-11-06T19:35:03.037Z,0
2018-11-06T19:40:02.669Z,0
2018-11-06T19:45:03.442Z,0
2018-11-06T19:50:03.258Z,0
2018-11-06T19:55:03.386Z,0
2018-11-06T20:00:03.332Z,0
2018-11-06T20:05:03.223Z,0
2018-11-06T20:10:03.225Z,0
2018-11-06T20:15:02.347Z,0
2018-11-06T20:20:02.510Z,0
2018-11-06T20:25:02.456Z,0
2018-11-06T20:30:02.980Z,0
2018-11-06T20:35:02.900Z,0
2018-11-06T20:40:02.473Z,0
2018-11-06T20:45:03.114Z,0
2018-11-06T20:50:02.779Z,0
2018-11-06T20:55:02.379Z,0
2018-11-06T21:00:03.308Z,0
2018-11-06T21:05:02.639Z,0
2018-11-06T21:10:03.225Z,0
2018-11-06T21:15:02.824Z,0
2018-11-06T21:20:02.652Z,0
2018-11-06T21:25:02.794Z,0
2018-11-06T21:30:02.889Z,0
2018-11-06T21:35:02.645Z,0
2018-11-06T21:40:03.249Z,0
2018-11-06T21:45:02.790Z,0
2018-11-06T21:50:02.351Z,0
2018-11-06T21:55:02.942Z,0
2018-11-06T22:00:02.547Z,0
2018-11-06T22:05:02.996Z,0
2018-11-06T22:10:02.655Z,0
2018-11-06T22:15:03.171Z,0
2018-11-06T22:20:02.939Z,0
2018-11-06T22:25:02.485Z,0
2018-11-06T22:30:02.906Z,0
2018-11-06T22:35:02.477Z,0
2018-11-06T22:40:03.220Z,0
2018-11-06T22:45:02.769Z,0
2018-11-06T22:50:03.255Z,0
2018-11-06T22:55:02.923Z,0
2018-11-06T23:00:02.458Z,0
2018-11-06T23:05:03.217Z,0
2018-11-06T23:10:02.883Z,0
2018-11-06T23:15:02.503Z,0
2018-11-06T23:20:03.148Z,0
2018-11-06T23:25:03.129Z,0
2018-11-06T23:30:02.496Z,0
2018-11-06T23:35:03.126Z,0
2018-11-06T23:40:02.822Z,0
2018-11-06T23:45:03.315Z,0
2018-11-06T23:50:02.851Z,0
2018-11-06T23:55:02.597Z,0
